Flight Track Log - Related Links

Times and Time Zones

All times are in EDT time to prevent confusion due to time zone crossing. See the EJA922 flight status page for this flight to view local times or setup timezone preferences in your user account.

Time Position Orientation Groundspeed Altitude Reporting Facility
EDT Latitude Longitude Course Direction KTS MPH feet Rate Location/Type
Tue 09:07:12 AM 29.7806 -95.8997 303° West 245 282 1,000  Level Houston Center
Tue 09:07:45 AM 29.7583 -95.8989 178° South 202 232 1,900 1,875 Climbing Houston Center
Tue 09:08:32 AM 29.7283 -95.9272 219° Southwest 187 215 3,500 1,742 Climbing Houston Center
Tue 09:09:49 AM 29.7408 -95.9986 281° West 214 246 5,500 1,942 Climbing Houston Center
Tue 09:10:00 AM 30.2724 -96.7358 303° West  Level Estimated
Tue 09:10:51 AM 29.7767 -96.0858 295° West 274 315 8,000  Level Houston Center
Tue 09:11:00 AM 30.3387 -96.8562 303° West  Level Estimated
Tue 09:11:53 AM 29.8075 -96.1711 293° West 287 330 10,400  Level Houston Center
Tue 09:12:00 AM 30.4049 -96.9767 303° West  Level Estimated
Tue 09:12:55 AM 29.8453 -96.2675 294° West 326 375 11,400  Level Houston Center
Tue 09:13:57 AM 29.8947 -96.3997 293° West 372 428 13,600 1,935 Climbing Houston Center
Tue 09:14:59 AM 29.9364 -96.5111 293° West 380 437 15,400 1,597 Climbing Houston Center
Tue 09:16:01 AM 29.9714 -96.6292 289° West 388 447 16,900 1,500 Climbing Houston Center
Tue 09:17:03 AM 29.9969 -96.7536 283° West 399 459 18,500 1,355 Climbing Houston Center
Tue 09:18:05 AM 30.0222 -96.8775 283° West 400 460 19,700 1,161 Climbing Houston Center
Tue 09:19:07 AM 30.0544 -97.0322 284° West 415 478 20,900 1,113 Climbing Houston Center
Tue 09:20:09 AM 30.0814 -97.1631 283° West 420 483 22,000 1,161 Climbing Houston Center
Tue 09:21:11 AM 30.1117 -97.3089 284° West 427 491 23,300 1,065 Climbing Houston Center
Tue 09:22:13 AM 30.1419 -97.4447 284° West 429 494 24,200 968 Climbing Houston Center
Tue 09:23:15 AM 30.1806 -97.5783 289° West 435 501 25,300 1,016 Climbing Houston Center
Tue 09:24:17 AM 30.2203 -97.7178 288° West 445 512 26,300 960 Climbing Houston Center
Tue 09:25:20 AM 30.2589 -97.8553 288° West 445 512 27,300 1,008 Climbing Houston Center
Tue 09:26:22 AM 30.3031 -98.0108 288° West 445 512 28,400 968 Climbing Houston Center
Tue 09:27:24 AM 30.3483 -98.1256 295° West 447 514 29,300 919 Climbing Houston Center
Tue 09:28:26 AM 30.4206 -98.2492 304° West 456 525 30,300 1,065 Climbing Houston Center
Tue 09:29:28 AM 30.5056 -98.3939 304° West 460 529 31,500 1,065 Climbing Houston Center
Tue 09:30:30 AM 30.5803 -98.5211 304° West 469 540 32,500 1,024 Climbing Houston Center
Tue 09:31:31 AM 30.6544 -98.6494 304° West 474 545 33,600 1,024 Climbing Houston Center
Tue 09:32:33 AM 30.7303 -98.7789 304° West 477 549 34,600 968 Climbing Houston Center
Tue 09:33:35 AM 30.8058 -98.9106 304° West 484 557 35,600 968 Climbing Houston Center
Tue 09:34:37 AM 30.8828 -99.0433 304° West 488 562 36,600 960 Climbing Houston Center
Tue 09:35:40 AM 30.9631 -99.1858 303° West 495 570 37,600 672 Climbing Houston Center
Tue 09:36:42 AM 31.0392 -99.3197 304° West 498 573 38,000 194 Climbing Houston Center
Tue 09:37:44 AM 31.1175 -99.4550 304° West 504 580 38,000  Level Houston Center
Tue 09:38:46 AM 31.1925 -99.5875 304° West 495 570 38,000  Level Houston Center
Tue 09:39:48 AM 31.2828 -99.7489 303° West 499 574 38,000  Level Houston Center
Tue 09:40:50 AM 31.3575 -99.8817 303° West 493 567 38,000  Level Houston Center
Tue 09:41:52 AM 31.4328 -100.0153 303° West 498 573 38,000  Level Houston Center
Tue 09:42:54 AM 31.5106 -100.1536 303° West 506 582 38,000  Level Houston Center
Tue 09:43:33 AM 31.5692 -100.2661 301° West 506 582 38,000  Level Fort Worth Center
Tue 09:44:33 AM 31.6456 -100.4003 304° West 506 582 38,000  Level Fort Worth Center
Tue 09:45:33 AM 31.7114 -100.5219 302° West 500 575 38,000  Level Fort Worth Center
Tue 09:46:33 AM 31.7894 -100.6567 304° West 500 575 38,000  Level Fort Worth Center
Tue 09:47:33 AM 31.8631 -100.7914 303° West 500 575 38,000  Level Fort Worth Center
Tue 09:48:33 AM 31.9322 -100.9308 300° West 500 575 38,000  Level Fort Worth Center
Tue 09:49:33 AM 32.0139 -101.0664 305° West 500 575 38,000  Level Fort Worth Center
Tue 09:50:33 AM 32.0872 -101.1992 303° West 495 570 38,000  Level Fort Worth Center
Tue 09:51:33 AM 32.1625 -101.3372 303° West 495 570 38,000  Level Fort Worth Center
Tue 09:52:33 AM 32.2369 -101.4903 300° West 495 570 38,000  Level Fort Worth Center
Tue 09:53:33 AM 32.3097 -101.6239 303° West 495 570 38,000  Level Fort Worth Center
Tue 09:54:33 AM 32.3844 -101.7603 303° West 495 570 38,000  Level Fort Worth Center
Tue 09:55:33 AM 32.4567 -101.8967 302° West 490 564 38,000  Level Fort Worth Center
Tue 09:56:33 AM 32.5311 -102.0358 302° West 490 564 38,000  Level Fort Worth Center
Tue 09:57:33 AM 32.6072 -102.1753 303° West 496 571 38,000  Level Fort Worth Center
Tue 09:58:33 AM 32.6856 -102.3128 304° West 513 590 38,000  Level Fort Worth Center
Tue 09:59:33 AM 32.7531 -102.4472 301° West 520 598 38,000  Level Fort Worth Center
Tue 10:00:33 AM 32.8244 -102.5897 301° West 515 593 38,000  Level Fort Worth Center
Tue 10:01:33 AM 32.8958 -102.7300 301° West 509 586 38,000  Level Fort Worth Center
Tue 10:03:50 AM 33.0508 -103.0328 301° West 493 567 38,000  Level Albuquerque Center
Tue 10:04:51 AM 33.1364 -103.1994 302° West 490 564 38,000  Level Albuquerque Center
Tue 10:05:53 AM 33.2069 -103.3381 301° West 491 565 38,000  Level Albuquerque Center
Tue 10:06:54 AM 33.2761 -103.4772 301° West 488 562 38,000  Level Albuquerque Center
Tue 10:07:56 AM 33.3467 -103.6172 301° West 492 566 38,000  Level Albuquerque Center
Tue 10:08:57 AM 33.4294 -103.7678 303° West 494 568 38,000  Level Albuquerque Center
Tue 10:09:59 AM 33.4989 -103.9067 301° West 491 565 38,000  Level Albuquerque Center
Tue 10:11:00 AM 33.5736 -104.0567 301° West 490 564 38,000 -488 Level Albuquerque Center
Tue 10:12:02 AM 33.6447 -104.1986 301° West 498 573 37,000 -976 Descending Albuquerque Center
Tue 10:13:03 AM 33.7217 -104.3558 301° West 508 585 36,000 -488 Descending Albuquerque Center
Tue 10:14:05 AM 33.7931 -104.5025 300° West 510 587 36,000  Level Albuquerque Center
Tue 10:15:07 AM 33.8636 -104.6450 301° West 502 578 36,000  Level Albuquerque Center
Tue 10:16:08 AM 33.9389 -104.7992 301° West 497 572 36,000  Level Albuquerque Center
Tue 10:17:10 AM 34.0083 -104.9406 301° West 495 570 36,000  Level Albuquerque Center
Tue 10:18:11 AM 34.0758 -105.0767 301° West 495 570 36,000  Level Albuquerque Center
Tue 10:19:13 AM 34.1469 -105.2200 301° West 493 567 36,000 -242 Level Albuquerque Center
Tue 10:20:15 AM 34.2164 -105.3644 300° West 492 566 35,500 -1,024 Descending Albuquerque Center
Tue 10:21:16 AM 34.2958 -105.5100 303° West 508 585 33,900 -2,098 Descending Albuquerque Center
Tue 10:22:18 AM 34.3964 -105.6819 305° West 525 604 31,200 -2,758 Descending Albuquerque Center
Tue 10:23:20 AM 34.4817 -105.8289 305° West 527 606 28,200 -2,913 Descending Albuquerque Center
Tue 10:24:36 AM 34.5833 -106.0086 305° West 507 583 24,500 -2,732 Descending Albuquerque Center
Tue 10:25:23 AM 34.6353 -106.0981 305° West 505 581 22,600 -2,477 Descending Albuquerque Center
Tue 10:26:25 AM 34.7097 -106.2264 305° West 485 558 20,000 -2,372 Descending Albuquerque Center
Tue 10:28:15 AM 34.8325 -106.4475 304° West 376 433 15,800 -2,188 Descending Albuquerque Center
Tue 10:29:15 AM 34.8864 -106.5472 303° West 337 388 13,800 -1,438 Descending Albuquerque Center
Tue 10:30:16 AM 34.9339 -106.6361 303° West 297 342 12,900 -414 Descending Albuquerque Center
Tue 10:31:11 AM 34.9689 -106.7022 303° West 223 257 13,000 -879 Climbing Albuquerque Center
Tue 10:32:12 AM 34.9875 -106.7725 288° West 216 249 11,200 -1,190 Descending Albuquerque Center
Tue 10:33:12 AM 34.9931 -106.8411 276° West 209 241 10,600 -1,240 Descending Albuquerque Center
Tue 10:34:13 AM 35.0472 -106.8583 345° North 213 245 8,700 -1,770 Descending Albuquerque Center
Tue 10:35:14 AM 35.1033 -106.8492 North 173 199 7,000 -1,152 Descending Albuquerque Center
Tue 10:36:44 AM 35.1464 -106.7983 44° Northeast 146 168 5,800 -800 Descending Albuquerque Center
Tue 10:38:00 AM 35.0574 -106.6398 90° East  Level Estimated

Login

Don't have an account? Register now (free) for customized features, flight alerts, and more!